Meteo Giornale » Osservazioni meteo Svizzera » Samedan

ore: 01:20 - Osservazioni Meteo Samedan
Lat. 46° 32' N Lon. 9° 53' E Alt. 1706 metri s.l.m.

sereno Europe/Zurich

-1 °C

Sereno

Temp. 24 Ore

-3 °C

17 °C

Nord

5.5 Km/h

Dew point -2 °C

Umidità 92 %

Visibilità  10 Km

Il sole sorge alle ore 07:08

Il sole tramonta alle ore 19:16

Data e Ora Cielo e Fenomeni T °C DP °C Um. % Pres. hPa Vis. km Vento km/h
Oggi h: 01:20 sereno Sereno -1 -2 92 1025 10 N 5.5
Oggi h: 00:50 sereno Sereno -2 -4 86 1025 10 N 3.7
Oggi h: 00:20 sereno Sereno -0 -2 86 1025 10 N 1.8
Ieri h: 23:50 sereno Sereno 1 -1 86 1025 10 N 3.7
Ieri h: 23:20 sereno Sereno 1 -1 86 1025 10 S/SO 7.4
Ieri h: 22:20 sereno Sereno 3 1 86 1025 10 N 3.7
Ieri h: 21:50 sereno Sereno 2 0 86 1025 10 N 5.5
Ieri h: 21:20 sereno Sereno 4 2 86 1025 10 N 5.5
Ieri h: 20:50 sereno Sereno 4 2 86 1025 10 N 5.5
Ieri h: 20:20 sereno Sereno 7 4 81 1024 10 N 3.7
Ieri h: 19:50 sereno Sereno 7 2 70 1024 10 N 3.7
Ieri h: 19:20 sereno Sereno 7 3 75 1024 10 N 5.5
Ieri h: 18:50 sereno Sereno 12 5 62 1024 10 SO 11.1
Ieri h: 18:20 sereno Sereno 14 7 62 1023 10 SO 13
Ieri h: 17:50 sereno Sereno 15 5 51 1023 10 SO 11.1
Ieri h: 17:20 sereno Sereno 16 5 47 1023 10 S/SO 16.7
Ieri h: 16:50 sereno Sereno 16 4 44 1023 10 S/SO 13
Ieri h: 16:20 sereno Sereno 16 5 47 1023 10 S/SO 14.8
Ieri h: 15:50 sereno Sereno 16 4 44 1024 10 S/SO 13
Ieri h: 15:20 sereno Sereno 17 3 39 1024 10 S/SO 13
Ieri h: 14:50 sereno Sereno 16 5 47 1024 10 SO 13
Ieri h: 14:20 sereno Sereno 16 3 41 1024 10 S/SO 11.1
Ieri h: 13:50 sereno Sereno 16 4 44 1025 10 SO 13
Ieri h: 13:20 sereno Sereno 16 4 44 1025 10 S/SO 11.1
Ieri h: 12:50 sereno Sereno 14 2 44 1025 10 S/SO 13
Ieri h: 12:20 sereno Sereno 14 4 50 1025 10 S 16.7
Ieri h: 11:50 sereno Sereno 13 2 47 1025 10 S 7.4
Ieri h: 11:20 sereno Sereno 11 2 53 1026 10 S 9.3
Ieri h: 10:50 sereno Sereno 8 4 75 1026 10 N 3.7
Ieri h: 10:20 sereno Sereno 4 4 100 1026 10 N 3.7
Ieri h: 09:50 sereno Sereno -0 -0 100 1026 10 N 1.8
Ieri h: 09:20 sereno Sereno -2 -2 100 1027 10 N 1.8
Ieri h: 08:50 sereno Sereno -3 -3 100 1027 10 N 3.7
Ieri h: 08:20 nebbia Banco di Nebbia -2 -2 100 1027 10 N 1.8
Ieri h: 07:50 nebbia Banco di Nebbia -3 -3 100 1027 2 N 1.8
Ieri h: 07:20 nebbia Nebbia Congelantesi -2 -3 92 1027 0.45 N 1.8
Ieri h: 06:50 sereno Sereno -3 -3 100 1027 10 N 3.7
Ieri h: 05:50 sereno Sereno -3 -3 100 1027 10 N 5.5
Ieri h: 05:20 nebbia Nebbia Congelantesi -2 -2 100 1027 0.35 N 3.7
Ieri h: 04:50 sereno Sereno -3 -3 100 1027 10 N 1.8
Ieri h: 04:20 sereno Sereno -1 -1 100 1027 6 N 1.8
Ieri h: 03:50 sereno Sereno -1 -1 100 1027 10 N 1.8
Ieri h: 03:20 sereno Sereno -1 -1 100 1028 10 N 1.8
Ieri h: 02:50 sereno Sereno -1 -1 100 1028 10 N 5.5
Ieri h: 02:20 sereno Sereno -0 -1 92 1028 10 N 3.7
Ieri h: 01:50 sereno Sereno -0 -1 92 1028 10 N 3.7